sensor_id;sensor_type;location;lat;lon;timestamp;temperature;humidity
34644;DHT22;26931;43.498;-1.506;2022-09-27T00:02:23;17.80;94.50
34644;DHT22;26931;43.498;-1.506;2022-09-27T00:04:48;17.80;94.60
34644;DHT22;26931;43.498;-1.506;2022-09-27T00:07:14;17.80;94.70
34644;DHT22;26931;43.498;-1.506;2022-09-27T00:09:40;17.80;94.90
34644;DHT22;26931;43.498;-1.506;2022-09-27T00:12:07;17.80;95.00
34644;DHT22;26931;43.498;-1.506;2022-09-27T00:14:34;17.80;95.10
34644;DHT22;26931;43.498;-1.506;2022-09-27T00:17:00;17.80;95.20
34644;DHT22;26931;43.498;-1.506;2022-09-27T00:19:25;17.80;95.20
34644;DHT22;26931;43.498;-1.506;2022-09-27T00:21:52;17.90;95.40
34644;DHT22;26931;43.498;-1.506;2022-09-27T00:24:20;17.80;95.40
34644;DHT22;26931;43.498;-1.506;2022-09-27T00:26:48;17.80;95.50
34644;DHT22;26931;43.498;-1.506;2022-09-27T00:29:16;17.70;95.60
34644;DHT22;26931;43.498;-1.506;2022-09-27T00:31:42;17.70;95.70
34644;DHT22;26931;43.498;-1.506;2022-09-27T00:34:19;17.80;95.80
34644;DHT22;26931;43.498;-1.506;2022-09-27T00:36:46;17.70;95.80
34644;DHT22;26931;43.498;-1.506;2022-09-27T00:39:12;17.70;95.90
34644;DHT22;26931;43.498;-1.506;2022-09-27T00:41:39;17.70;95.90
34644;DHT22;26931;43.498;-1.506;2022-09-27T00:47:20;17.70;96.00
34644;DHT22;26931;43.498;-1.506;2022-09-27T00:49:59;17.70;96.10
34644;DHT22;26931;43.498;-1.506;2022-09-27T00:52:42;17.70;96.10
34644;DHT22;26931;43.498;-1.506;2022-09-27T00:55:19;17.70;96.20
34644;DHT22;26931;43.498;-1.506;2022-09-27T00:57:46;17.60;96.20
34644;DHT22;26931;43.498;-1.506;2022-09-27T01:00:14;17.60;96.30
34644;DHT22;26931;43.498;-1.506;2022-09-27T01:02:44;17.60;96.30
34644;DHT22;26931;43.498;-1.506;2022-09-27T01:05:13;17.60;96.40
34644;DHT22;26931;43.498;-1.506;2022-09-27T01:07:40;17.60;96.40
34644;DHT22;26931;43.498;-1.506;2022-09-27T01:10:07;17.60;96.40
34644;DHT22;26931;43.498;-1.506;2022-09-27T01:26:40;17.50;96.70
34644;DHT22;26931;43.498;-1.506;2022-09-27T01:32:02;17.60;96.90
34644;DHT22;26931;43.498;-1.506;2022-09-27T01:34:52;17.60;97.00
34644;DHT22;26931;43.498;-1.506;2022-09-27T01:37:32;17.60;97.00
34644;DHT22;26931;43.498;-1.506;2022-09-27T01:43:15;17.60;97.30
34644;DHT22;26931;43.498;-1.506;2022-09-27T01:48:57;17.70;97.50
34644;DHT22;26931;43.498;-1.506;2022-09-27T01:51:34;17.70;97.50
34644;DHT22;26931;43.498;-1.506;2022-09-27T01:54:02;17.80;97.40
34644;DHT22;26931;43.498;-1.506;2022-09-27T01:56:36;17.60;97.30
34644;DHT22;26931;43.498;-1.506;2022-09-27T01:59:13;17.60;97.70
34644;DHT22;26931;43.498;-1.506;2022-09-27T02:01:43;17.60;97.30
34644;DHT22;26931;43.498;-1.506;2022-09-27T02:04:13;17.70;97.30
34644;DHT22;26931;43.498;-1.506;2022-09-27T02:06:43;17.60;97.30
34644;DHT22;26931;43.498;-1.506;2022-09-27T02:09:30;17.70;97.30
34644;DHT22;26931;43.498;-1.506;2022-09-27T02:12:03;17.70;97.40
34644;DHT22;26931;43.498;-1.506;2022-09-27T02:14:41;17.70;97.40
34644;DHT22;26931;43.498;-1.506;2022-09-27T02:20:04;17.70;97.50
34644;DHT22;26931;43.498;-1.506;2022-09-27T02:22:34;17.80;97.50
34644;DHT22;26931;43.498;-1.506;2022-09-27T02:25:04;17.80;97.50
34644;DHT22;26931;43.498;-1.506;2022-09-27T02:30:28;17.80;97.30
34644;DHT22;26931;43.498;-1.506;2022-09-27T02:32:54;17.80;97.30
34644;DHT22;26931;43.498;-1.506;2022-09-27T02:35:27;17.80;97.30
34644;DHT22;26931;43.498;-1.506;2022-09-27T02:37:55;17.80;97.30
34644;DHT22;26931;43.498;-1.506;2022-09-27T02:40:22;17.90;97.20
34644;DHT22;26931;43.498;-1.506;2022-09-27T02:42:48;17.90;97.10
34644;DHT22;26931;43.498;-1.506;2022-09-27T02:45:15;17.90;97.00
34644;DHT22;26931;43.498;-1.506;2022-09-27T02:56:22;18.00;96.90
34644;DHT22;26931;43.498;-1.506;2022-09-27T02:59:06;18.00;96.90
34644;DHT22;26931;43.498;-1.506;2022-09-27T03:01:50;18.00;96.90
34644;DHT22;26931;43.498;-1.506;2022-09-27T03:04:31;18.00;96.80
34644;DHT22;26931;43.498;-1.506;2022-09-27T03:06:59;18.00;96.70
34644;DHT22;26931;43.498;-1.506;2022-09-27T03:09:41;18.00;96.60
34644;DHT22;26931;43.498;-1.506;2022-09-27T03:12:07;18.00;96.50
34644;DHT22;26931;43.498;-1.506;2022-09-27T03:14:33;18.00;96.40
34644;DHT22;26931;43.498;-1.506;2022-09-27T03:16:59;18.00;96.30
34644;DHT22;26931;43.498;-1.506;2022-09-27T03:19:25;17.90;96.10
34644;DHT22;26931;43.498;-1.506;2022-09-27T03:21:51;18.00;96.10
34644;DHT22;26931;43.498;-1.506;2022-09-27T03:24:16;17.90;96.00
34644;DHT22;26931;43.498;-1.506;2022-09-27T03:26:42;17.90;96.00
34644;DHT22;26931;43.498;-1.506;2022-09-27T03:29:08;17.90;96.10
34644;DHT22;26931;43.498;-1.506;2022-09-27T03:31:34;17.90;96.10
34644;DHT22;26931;43.498;-1.506;2022-09-27T03:34:00;17.90;96.20
34644;DHT22;26931;43.498;-1.506;2022-09-27T03:36:26;17.80;96.20
34644;DHT22;26931;43.498;-1.506;2022-09-27T03:38:52;17.80;96.30
34644;DHT22;26931;43.498;-1.506;2022-09-27T03:41:18;17.80;96.30
34644;DHT22;26931;43.498;-1.506;2022-09-27T03:43:44;17.90;96.20
34644;DHT22;26931;43.498;-1.506;2022-09-27T03:46:10;17.90;96.00
34644;DHT22;26931;43.498;-1.506;2022-09-27T03:48:36;17.90;95.70
34644;DHT22;26931;43.498;-1.506;2022-09-27T03:51:02;17.90;95.50
34644;DHT22;26931;43.498;-1.506;2022-09-27T03:53:29;18.00;95.40
34644;DHT22;26931;43.498;-1.506;2022-09-27T03:55:55;18.00;95.10
34644;DHT22;26931;43.498;-1.506;2022-09-27T03:58:24;18.00;95.20
34644;DHT22;26931;43.498;-1.506;2022-09-27T04:00:50;18.00;94.70
34644;DHT22;26931;43.498;-1.506;2022-09-27T04:03:15;18.00;94.50
34644;DHT22;26931;43.498;-1.506;2022-09-27T04:05:44;18.00;94.30
34644;DHT22;26931;43.498;-1.506;2022-09-27T04:08:11;18.00;94.20
34644;DHT22;26931;43.498;-1.506;2022-09-27T04:10:38;18.00;94.10
34644;DHT22;26931;43.498;-1.506;2022-09-27T04:13:05;18.00;94.00
34644;DHT22;26931;43.498;-1.506;2022-09-27T04:15:31;18.10;94.00
34644;DHT22;26931;43.498;-1.506;2022-09-27T04:17:56;18.10;93.90
34644;DHT22;26931;43.498;-1.506;2022-09-27T04:20:22;18.10;93.80
34644;DHT22;26931;43.498;-1.506;2022-09-27T04:22:48;18.20;93.80
34644;DHT22;26931;43.498;-1.506;2022-09-27T04:25:14;18.10;93.80
34644;DHT22;26931;43.498;-1.506;2022-09-27T04:27:44;18.00;93.60
34644;DHT22;26931;43.498;-1.506;2022-09-27T04:30:11;18.10;93.50
34644;DHT22;26931;43.498;-1.506;2022-09-27T04:32:42;18.10;93.40
34644;DHT22;26931;43.498;-1.506;2022-09-27T04:35:09;18.10;93.30
34644;DHT22;26931;43.498;-1.506;2022-09-27T04:37:54;18.10;93.10
34644;DHT22;26931;43.498;-1.506;2022-09-27T04:40:20;18.10;93.10
34644;DHT22;26931;43.498;-1.506;2022-09-27T04:42:50;18.10;93.10
34644;DHT22;26931;43.498;-1.506;2022-09-27T04:45:18;18.10;93.20
34644;DHT22;26931;43.498;-1.506;2022-09-27T04:47:45;18.10;93.60
34644;DHT22;26931;43.498;-1.506;2022-09-27T04:50:12;18.10;93.30
34644;DHT22;26931;43.498;-1.506;2022-09-27T04:52:38;18.10;93.20
34644;DHT22;26931;43.498;-1.506;2022-09-27T04:55:06;18.10;93.00
34644;DHT22;26931;43.498;-1.506;2022-09-27T04:57:32;18.10;92.90
34644;DHT22;26931;43.498;-1.506;2022-09-27T04:59:58;18.10;92.70
34644;DHT22;26931;43.498;-1.506;2022-09-27T05:02:27;18.00;92.40
34644;DHT22;26931;43.498;-1.506;2022-09-27T05:04:55;18.00;92.20
34644;DHT22;26931;43.498;-1.506;2022-09-27T05:07:24;18.00;92.00
34644;DHT22;26931;43.498;-1.506;2022-09-27T05:09:50;18.00;91.80
34644;DHT22;26931;43.498;-1.506;2022-09-27T05:12:16;18.00;91.70
34644;DHT22;26931;43.498;-1.506;2022-09-27T05:14:42;18.00;91.70
34644;DHT22;26931;43.498;-1.506;2022-09-27T05:17:08;18.00;91.60
34644;DHT22;26931;43.498;-1.506;2022-09-27T05:19:35;18.00;91.50
34644;DHT22;26931;43.498;-1.506;2022-09-27T05:22:01;18.00;91.50
34644;DHT22;26931;43.498;-1.506;2022-09-27T05:24:27;17.90;91.20
34644;DHT22;26931;43.498;-1.506;2022-09-27T05:26:53;18.00;91.10
34644;DHT22;26931;43.498;-1.506;2022-09-27T05:29:19;18.00;91.00
34644;DHT22;26931;43.498;-1.506;2022-09-27T05:31:45;18.00;90.90
34644;DHT22;26931;43.498;-1.506;2022-09-27T05:34:12;18.00;90.90
34644;DHT22;26931;43.498;-1.506;2022-09-27T05:36:38;18.00;90.90
34644;DHT22;26931;43.498;-1.506;2022-09-27T05:39:04;18.10;90.90
34644;DHT22;26931;43.498;-1.506;2022-09-27T05:41:31;18.00;90.90
34644;DHT22;26931;43.498;-1.506;2022-09-27T05:43:58;18.10;90.90
34644;DHT22;26931;43.498;-1.506;2022-09-27T05:46:24;18.00;90.80
34644;DHT22;26931;43.498;-1.506;2022-09-27T05:48:50;18.10;90.70
34644;DHT22;26931;43.498;-1.506;2022-09-27T05:51:16;18.10;90.70
34644;DHT22;26931;43.498;-1.506;2022-09-27T05:53:43;18.10;90.70
34644;DHT22;26931;43.498;-1.506;2022-09-27T05:56:09;18.10;90.80
34644;DHT22;26931;43.498;-1.506;2022-09-27T05:58:35;18.10;90.80
34644;DHT22;26931;43.498;-1.506;2022-09-27T06:01:05;18.10;90.80
34644;DHT22;26931;43.498;-1.506;2022-09-27T06:03:33;18.00;90.80
34644;DHT22;26931;43.498;-1.506;2022-09-27T06:06:03;18.10;90.90
34644;DHT22;26931;43.498;-1.506;2022-09-27T06:08:33;18.10;91.00
34644;DHT22;26931;43.498;-1.506;2022-09-27T06:11:03;18.10;91.20
34644;DHT22;26931;43.498;-1.506;2022-09-27T06:13:29;18.10;91.20
34644;DHT22;26931;43.498;-1.506;2022-09-27T06:15:55;18.10;91.20
34644;DHT22;26931;43.498;-1.506;2022-09-27T06:18:21;18.10;91.20
34644;DHT22;26931;43.498;-1.506;2022-09-27T06:20:47;18.00;91.20
34644;DHT22;26931;43.498;-1.506;2022-09-27T06:23:21;18.00;91.30
34644;DHT22;26931;43.498;-1.506;2022-09-27T06:25:48;18.00;91.40
34644;DHT22;26931;43.498;-1.506;2022-09-27T06:28:15;18.10;91.50
34644;DHT22;26931;43.498;-1.506;2022-09-27T06:30:48;18.10;91.60
34644;DHT22;26931;43.498;-1.506;2022-09-27T06:33:18;18.00;91.40
34644;DHT22;26931;43.498;-1.506;2022-09-27T06:35:44;18.00;91.30
34644;DHT22;26931;43.498;-1.506;2022-09-27T06:38:15;18.00;91.10
34644;DHT22;26931;43.498;-1.506;2022-09-27T06:40:43;18.00;91.00
34644;DHT22;26931;43.498;-1.506;2022-09-27T06:43:14;18.10;91.10
34644;DHT22;26931;43.498;-1.506;2022-09-27T06:45:40;18.00;91.10
34644;DHT22;26931;43.498;-1.506;2022-09-27T06:48:09;18.00;91.20
34644;DHT22;26931;43.498;-1.506;2022-09-27T06:50:39;18.10;91.30
34644;DHT22;26931;43.498;-1.506;2022-09-27T06:53:09;18.10;91.40
34644;DHT22;26931;43.498;-1.506;2022-09-27T06:55:39;18.00;91.70
34644;DHT22;26931;43.498;-1.506;2022-09-27T06:58:05;17.90;92.00
34644;DHT22;26931;43.498;-1.506;2022-09-27T07:00:51;17.80;92.00
34644;DHT22;26931;43.498;-1.506;2022-09-27T07:03:18;17.80;92.10
34644;DHT22;26931;43.498;-1.506;2022-09-27T07:05:59;17.80;92.10
34644;DHT22;26931;43.498;-1.506;2022-09-27T07:08:26;17.70;92.20
34644;DHT22;26931;43.498;-1.506;2022-09-27T07:10:54;17.70;92.20
34644;DHT22;26931;43.498;-1.506;2022-09-27T07:13:21;17.70;92.20
34644;DHT22;26931;43.498;-1.506;2022-09-27T07:15:47;17.60;92.20
34644;DHT22;26931;43.498;-1.506;2022-09-27T07:18:13;17.60;92.20
34644;DHT22;26931;43.498;-1.506;2022-09-27T07:20:39;17.70;92.20
34644;DHT22;26931;43.498;-1.506;2022-09-27T07:23:07;17.60;92.10
34644;DHT22;26931;43.498;-1.506;2022-09-27T07:25:33;17.60;92.10
34644;DHT22;26931;43.498;-1.506;2022-09-27T07:28:05;17.70;92.10
34644;DHT22;26931;43.498;-1.506;2022-09-27T07:30:32;17.60;92.00
34644;DHT22;26931;43.498;-1.506;2022-09-27T07:32:59;17.70;92.00
34644;DHT22;26931;43.498;-1.506;2022-09-27T07:35:26;17.70;91.80
34644;DHT22;26931;43.498;-1.506;2022-09-27T07:37:53;17.70;91.70
34644;DHT22;26931;43.498;-1.506;2022-09-27T07:40:19;17.80;91.60
34644;DHT22;26931;43.498;-1.506;2022-09-27T07:42:45;17.80;91.70
34644;DHT22;26931;43.498;-1.506;2022-09-27T07:45:11;17.80;91.70
34644;DHT22;26931;43.498;-1.506;2022-09-27T07:47:38;17.80;91.80
34644;DHT22;26931;43.498;-1.506;2022-09-27T07:50:05;17.80;92.00
34644;DHT22;26931;43.498;-1.506;2022-09-27T07:52:41;17.80;92.20
34644;DHT22;26931;43.498;-1.506;2022-09-27T07:55:09;17.70;92.40
34644;DHT22;26931;43.498;-1.506;2022-09-27T07:57:36;17.70;92.70
34644;DHT22;26931;43.498;-1.506;2022-09-27T08:00:07;17.70;92.90
34644;DHT22;26931;43.498;-1.506;2022-09-27T08:02:33;17.70;93.00
34644;DHT22;26931;43.498;-1.506;2022-09-27T08:04:59;17.70;93.20
34644;DHT22;26931;43.498;-1.506;2022-09-27T08:07:26;17.60;93.30
34644;DHT22;26931;43.498;-1.506;2022-09-27T08:09:52;17.60;93.40
34644;DHT22;26931;43.498;-1.506;2022-09-27T08:12:18;17.60;93.50
34644;DHT22;26931;43.498;-1.506;2022-09-27T08:14:46;17.60;93.60
34644;DHT22;26931;43.498;-1.506;2022-09-27T08:17:13;17.70;94.00
34644;DHT22;26931;43.498;-1.506;2022-09-27T08:19:39;17.70;93.70
34644;DHT22;26931;43.498;-1.506;2022-09-27T08:22:08;17.70;93.80
34644;DHT22;26931;43.498;-1.506;2022-09-27T08:24:34;17.80;93.90
34644;DHT22;26931;43.498;-1.506;2022-09-27T08:27:01;17.90;93.90
34644;DHT22;26931;43.498;-1.506;2022-09-27T08:29:27;18.00;93.90
34644;DHT22;26931;43.498;-1.506;2022-09-27T08:31:53;18.10;94.00
34644;DHT22;26931;43.498;-1.506;2022-09-27T08:34:22;18.00;93.90
34644;DHT22;26931;43.498;-1.506;2022-09-27T08:36:48;18.00;93.90
34644;DHT22;26931;43.498;-1.506;2022-09-27T08:39:14;18.00;93.90
34644;DHT22;26931;43.498;-1.506;2022-09-27T08:42:22;18.10;93.90
34644;DHT22;26931;43.498;-1.506;2022-09-27T08:47:36;18.20;93.40
34644;DHT22;26931;43.498;-1.506;2022-09-27T08:52:39;18.40;93.20
34644;DHT22;26931;43.498;-1.506;2022-09-27T08:55:21;18.40;93.00
34644;DHT22;26931;43.498;-1.506;2022-09-27T08:57:53;18.50;93.00
34644;DHT22;26931;43.498;-1.506;2022-09-27T09:00:20;18.50;92.90
34644;DHT22;26931;43.498;-1.506;2022-09-27T09:02:46;18.60;92.80
34644;DHT22;26931;43.498;-1.506;2022-09-27T09:05:38;18.60;92.80
34644;DHT22;26931;43.498;-1.506;2022-09-27T09:08:18;18.70;92.70
34644;DHT22;26931;43.498;-1.506;2022-09-27T09:10:54;18.60;92.70
34644;DHT22;26931;43.498;-1.506;2022-09-27T09:16:28;18.50;92.80
34644;DHT22;26931;43.498;-1.506;2022-09-27T09:19:24;18.50;92.80
34644;DHT22;26931;43.498;-1.506;2022-09-27T09:22:18;18.60;92.70
34644;DHT22;26931;43.498;-1.506;2022-09-27T09:24:56;18.70;92.50
34644;DHT22;26931;43.498;-1.506;2022-09-27T09:27:38;18.70;92.30
34644;DHT22;26931;43.498;-1.506;2022-09-27T09:30:24;18.70;92.20
34644;DHT22;26931;43.498;-1.506;2022-09-27T09:35:25;18.70;92.00
34644;DHT22;26931;43.498;-1.506;2022-09-27T09:37:59;18.60;92.00
34644;DHT22;26931;43.498;-1.506;2022-09-27T09:40:35;18.60;92.00
34644;DHT22;26931;43.498;-1.506;2022-09-27T09:43:04;18.50;92.10
34644;DHT22;26931;43.498;-1.506;2022-09-27T09:45:45;18.50;92.20
34644;DHT22;26931;43.498;-1.506;2022-09-27T09:48:36;18.50;92.80
34644;DHT22;26931;43.498;-1.506;2022-09-27T09:51:10;18.50;92.70
34644;DHT22;26931;43.498;-1.506;2022-09-27T09:56:46;18.40;93.10
34644;DHT22;26931;43.498;-1.506;2022-09-27T09:59:29;18.50;93.20
34644;DHT22;26931;43.498;-1.506;2022-09-27T10:02:18;18.50;93.20
34644;DHT22;26931;43.498;-1.506;2022-09-27T10:04:49;18.60;93.30
34644;DHT22;26931;43.498;-1.506;2022-09-27T10:07:19;18.70;93.30
34644;DHT22;26931;43.498;-1.506;2022-09-27T10:09:46;18.70;93.30
34644;DHT22;26931;43.498;-1.506;2022-09-27T10:12:13;18.80;93.40
34644;DHT22;26931;43.498;-1.506;2022-09-27T10:14:45;18.80;93.30
34644;DHT22;26931;43.498;-1.506;2022-09-27T10:17:15;18.90;93.30
34644;DHT22;26931;43.498;-1.506;2022-09-27T10:19:43;19.00;93.20
34644;DHT22;26931;43.498;-1.506;2022-09-27T10:24:58;19.10;93.10
34644;DHT22;26931;43.498;-1.506;2022-09-27T10:27:26;19.10;92.70
34644;DHT22;26931;43.498;-1.506;2022-09-27T10:29:57;19.10;92.50
34644;DHT22;26931;43.498;-1.506;2022-09-27T10:32:30;19.20;92.20
34644;DHT22;26931;43.498;-1.506;2022-09-27T10:35:18;19.30;91.80
34644;DHT22;26931;43.498;-1.506;2022-09-27T10:37:44;19.40;91.50
34644;DHT22;26931;43.498;-1.506;2022-09-27T10:40:28;19.40;91.30
34644;DHT22;26931;43.498;-1.506;2022-09-27T10:42:54;19.50;90.90
34644;DHT22;26931;43.498;-1.506;2022-09-27T10:45:32;19.60;90.70
34644;DHT22;26931;43.498;-1.506;2022-09-27T10:48:00;19.70;90.50
34644;DHT22;26931;43.498;-1.506;2022-09-27T10:50:30;19.70;90.30
34644;DHT22;26931;43.498;-1.506;2022-09-27T10:53:10;19.60;90.20
34644;DHT22;26931;43.498;-1.506;2022-09-27T10:55:38;19.50;90.10
34644;DHT22;26931;43.498;-1.506;2022-09-27T10:58:05;19.40;90.00
34644;DHT22;26931;43.498;-1.506;2022-09-27T11:00:34;19.30;90.20
34644;DHT22;26931;43.498;-1.506;2022-09-27T11:03:15;19.30;90.40
34644;DHT22;26931;43.498;-1.506;2022-09-27T11:05:41;19.40;90.50
34644;DHT22;26931;43.498;-1.506;2022-09-27T11:10:42;19.70;90.40
34644;DHT22;26931;43.498;-1.506;2022-09-27T11:13:17;19.80;90.40
34644;DHT22;26931;43.498;-1.506;2022-09-27T11:29:21;20.20;87.90
34644;DHT22;26931;43.498;-1.506;2022-09-27T11:31:58;20.30;87.40
34644;DHT22;26931;43.498;-1.506;2022-09-27T11:34:37;20.40;87.40
34644;DHT22;26931;43.498;-1.506;2022-09-27T11:40:01;20.60;87.80
34644;DHT22;26931;43.498;-1.506;2022-09-27T11:51:02;20.80;88.00
34644;DHT22;26931;43.498;-1.506;2022-09-27T11:56:34;21.00;85.70
34644;DHT22;26931;43.498;-1.506;2022-09-27T12:01:51;21.20;85.10
34644;DHT22;26931;43.498;-1.506;2022-09-27T12:10:00;21.10;84.80
34644;DHT22;26931;43.498;-1.506;2022-09-27T12:12:31;21.00;84.90
34644;DHT22;26931;43.498;-1.506;2022-09-27T12:15:02;21.00;84.90
34644;DHT22;26931;43.498;-1.506;2022-09-27T12:17:34;21.00;85.20
34644;DHT22;26931;43.498;-1.506;2022-09-27T12:20:17;21.10;85.60
34644;DHT22;26931;43.498;-1.506;2022-09-27T12:23:07;21.10;85.80
34644;DHT22;26931;43.498;-1.506;2022-09-27T12:25:37;21.00;86.20
34644;DHT22;26931;43.498;-1.506;2022-09-27T12:28:28;21.00;86.40
34644;DHT22;26931;43.498;-1.506;2022-09-27T12:31:02;20.80;86.80
34644;DHT22;26931;43.498;-1.506;2022-09-27T12:33:43;20.80;87.20
34644;DHT22;26931;43.498;-1.506;2022-09-27T12:36:14;20.70;87.20
34644;DHT22;26931;43.498;-1.506;2022-09-27T12:41:33;20.60;88.00
34644;DHT22;26931;43.498;-1.506;2022-09-27T12:44:01;20.70;88.10
34644;DHT22;26931;43.498;-1.506;2022-09-27T12:46:51;20.70;87.60
34644;DHT22;26931;43.498;-1.506;2022-09-27T12:52:19;20.70;85.90
34644;DHT22;26931;43.498;-1.506;2022-09-27T12:55:24;20.70;84.90
34644;DHT22;26931;43.498;-1.506;2022-09-27T12:58:22;20.70;83.50
34644;DHT22;26931;43.498;-1.506;2022-09-27T13:01:24;20.70;83.00
34644;DHT22;26931;43.498;-1.506;2022-09-27T13:06:33;20.80;82.30
34644;DHT22;26931;43.498;-1.506;2022-09-27T13:09:14;20.80;81.90
34644;DHT22;26931;43.498;-1.506;2022-09-27T13:12:00;20.90;81.30
34644;DHT22;26931;43.498;-1.506;2022-09-27T13:14:32;20.90;80.80
34644;DHT22;26931;43.498;-1.506;2022-09-27T13:16:58;21.00;80.70
34644;DHT22;26931;43.498;-1.506;2022-09-27T13:19:43;20.90;80.50
34644;DHT22;26931;43.498;-1.506;2022-09-27T13:22:35;21.00;80.60
34644;DHT22;26931;43.498;-1.506;2022-09-27T13:25:13;20.90;80.70
34644;DHT22;26931;43.498;-1.506;2022-09-27T13:27:48;20.80;80.50
34644;DHT22;26931;43.498;-1.506;2022-09-27T13:38:32;20.80;80.90
34644;DHT22;26931;43.498;-1.506;2022-09-27T13:41:17;20.70;81.30
34644;DHT22;26931;43.498;-1.506;2022-09-27T13:44:07;20.80;81.50
34644;DHT22;26931;43.498;-1.506;2022-09-27T13:46:45;20.80;81.10
34644;DHT22;26931;43.498;-1.506;2022-09-27T13:49:35;20.80;80.90
34644;DHT22;26931;43.498;-1.506;2022-09-27T13:52:24;20.80;80.90
34644;DHT22;26931;43.498;-1.506;2022-09-27T13:54:54;20.80;81.00
34644;DHT22;26931;43.498;-1.506;2022-09-27T13:57:48;20.70;81.30
34644;DHT22;26931;43.498;-1.506;2022-09-27T14:00:20;20.70;81.50
34644;DHT22;26931;43.498;-1.506;2022-09-27T14:05:56;20.60;82.30
34644;DHT22;26931;43.498;-1.506;2022-09-27T14:08:38;20.40;83.30
34644;DHT22;26931;43.498;-1.506;2022-09-27T14:11:12;20.40;83.80
34644;DHT22;26931;43.498;-1.506;2022-09-27T14:13:41;20.40;84.10
34644;DHT22;26931;43.498;-1.506;2022-09-27T14:16:07;20.40;84.30
34644;DHT22;26931;43.498;-1.506;2022-09-27T14:18:44;20.40;84.60
34644;DHT22;26931;43.498;-1.506;2022-09-27T14:21:35;20.50;85.10
34644;DHT22;26931;43.498;-1.506;2022-09-27T14:25:11;20.50;85.30
34644;DHT22;26931;43.498;-1.506;2022-09-27T14:27:17;20.60;85.40
34644;DHT22;26931;43.498;-1.506;2022-09-27T14:29:46;20.60;85.40
34644;DHT22;26931;43.498;-1.506;2022-09-27T14:32:17;20.60;85.10
34644;DHT22;26931;43.498;-1.506;2022-09-27T14:34:44;20.70;84.40
34644;DHT22;26931;43.498;-1.506;2022-09-27T14:37:19;20.70;82.80
34644;DHT22;26931;43.498;-1.506;2022-09-27T14:39:58;20.70;81.50
34644;DHT22;26931;43.498;-1.506;2022-09-27T14:42:26;20.70;81.10
34644;DHT22;26931;43.498;-1.506;2022-09-27T14:44:57;20.70;80.80
34644;DHT22;26931;43.498;-1.506;2022-09-27T14:47:26;20.80;80.80
34644;DHT22;26931;43.498;-1.506;2022-09-27T14:50:15;20.90;80.90
34644;DHT22;26931;43.498;-1.506;2022-09-27T14:52:42;20.80;80.60
34644;DHT22;26931;43.498;-1.506;2022-09-27T14:57:38;20.60;81.30
34644;DHT22;26931;43.498;-1.506;2022-09-27T15:00:27;20.60;81.50
34644;DHT22;26931;43.498;-1.506;2022-09-27T15:02:58;20.50;80.80
34644;DHT22;26931;43.498;-1.506;2022-09-27T15:05:31;20.40;80.20
34644;DHT22;26931;43.498;-1.506;2022-09-27T15:07:59;20.30;80.20
34644;DHT22;26931;43.498;-1.506;2022-09-27T15:10:28;20.20;78.90
34644;DHT22;26931;43.498;-1.506;2022-09-27T15:12:58;20.20;78.50
34644;DHT22;26931;43.498;-1.506;2022-09-27T15:15:33;20.10;78.60
34644;DHT22;26931;43.498;-1.506;2022-09-27T15:18:01;20.10;79.10
34644;DHT22;26931;43.498;-1.506;2022-09-27T15:20:33;20.10;79.80
34644;DHT22;26931;43.498;-1.506;2022-09-27T15:23:01;20.10;80.40
34644;DHT22;26931;43.498;-1.506;2022-09-27T15:25:37;20.00;80.90
34644;DHT22;26931;43.498;-1.506;2022-09-27T15:30:38;20.00;81.80
34644;DHT22;26931;43.498;-1.506;2022-09-27T15:33:05;20.00;82.70
34644;DHT22;26931;43.498;-1.506;2022-09-27T15:35:33;20.00;83.20
34644;DHT22;26931;43.498;-1.506;2022-09-27T15:38:42;20.10;83.60
34644;DHT22;26931;43.498;-1.506;2022-09-27T15:41:19;20.20;84.10
34644;DHT22;26931;43.498;-1.506;2022-09-27T15:43:51;20.20;84.10
34644;DHT22;26931;43.498;-1.506;2022-09-27T15:46:37;20.10;84.10
34644;DHT22;26931;43.498;-1.506;2022-09-27T15:49:28;20.10;83.90
34644;DHT22;26931;43.498;-1.506;2022-09-27T15:51:57;19.90;84.00
34644;DHT22;26931;43.498;-1.506;2022-09-27T15:54:25;19.80;84.60
34644;DHT22;26931;43.498;-1.506;2022-09-27T15:56:53;19.80;85.50
34644;DHT22;26931;43.498;-1.506;2022-09-27T15:59:25;19.70;86.40
34644;DHT22;26931;43.498;-1.506;2022-09-27T16:02:05;19.70;87.90
34644;DHT22;26931;43.498;-1.506;2022-09-27T16:04:34;19.60;87.50
34644;DHT22;26931;43.498;-1.506;2022-09-27T16:07:01;19.60;87.80
34644;DHT22;26931;43.498;-1.506;2022-09-27T16:09:30;19.60;88.10
34644;DHT22;26931;43.498;-1.506;2022-09-27T16:11:55;19.50;88.40
34644;DHT22;26931;43.498;-1.506;2022-09-27T16:14:21;19.50;88.50
34644;DHT22;26931;43.498;-1.506;2022-09-27T16:16:55;19.40;88.30
34644;DHT22;26931;43.498;-1.506;2022-09-27T16:19:22;19.50;88.40
34644;DHT22;26931;43.498;-1.506;2022-09-27T16:21:48;19.50;88.60
34644;DHT22;26931;43.498;-1.506;2022-09-27T16:24:15;19.40;88.80
34644;DHT22;26931;43.498;-1.506;2022-09-27T16:26:41;19.50;89.40
34644;DHT22;26931;43.498;-1.506;2022-09-27T16:29:12;19.50;89.80
34644;DHT22;26931;43.498;-1.506;2022-09-27T16:31:39;19.50;89.80
34644;DHT22;26931;43.498;-1.506;2022-09-27T16:34:07;19.50;89.80
34644;DHT22;26931;43.498;-1.506;2022-09-27T16:36:33;19.50;89.90
34644;DHT22;26931;43.498;-1.506;2022-09-27T16:39:00;19.50;89.90
34644;DHT22;26931;43.498;-1.506;2022-09-27T16:41:29;19.50;89.50
34644;DHT22;26931;43.498;-1.506;2022-09-27T16:43:55;19.50;89.20
34644;DHT22;26931;43.498;-1.506;2022-09-27T16:46:20;19.40;89.10
34644;DHT22;26931;43.498;-1.506;2022-09-27T16:48:46;19.40;89.00
34644;DHT22;26931;43.498;-1.506;2022-09-27T16:51:18;19.40;88.60
34644;DHT22;26931;43.498;-1.506;2022-09-27T16:54:03;19.30;87.80
34644;DHT22;26931;43.498;-1.506;2022-09-27T16:56:34;19.30;87.70
34644;DHT22;26931;43.498;-1.506;2022-09-27T16:59:04;19.30;88.20
34644;DHT22;26931;43.498;-1.506;2022-09-27T17:01:31;19.30;88.50
34644;DHT22;26931;43.498;-1.506;2022-09-27T17:03:57;19.20;89.20
34644;DHT22;26931;43.498;-1.506;2022-09-27T17:06:24;19.20;90.00
34644;DHT22;26931;43.498;-1.506;2022-09-27T17:08:50;19.10;90.30
34644;DHT22;26931;43.498;-1.506;2022-09-27T17:11:18;19.10;90.60
34644;DHT22;26931;43.498;-1.506;2022-09-27T17:13:45;19.00;90.80
34644;DHT22;26931;43.498;-1.506;2022-09-27T17:16:14;19.00;91.10
34644;DHT22;26931;43.498;-1.506;2022-09-27T17:18:40;19.00;91.30
34644;DHT22;26931;43.498;-1.506;2022-09-27T17:21:07;19.00;91.40
34644;DHT22;26931;43.498;-1.506;2022-09-27T17:23:34;18.90;91.50
34644;DHT22;26931;43.498;-1.506;2022-09-27T17:26:13;18.90;91.60
34644;DHT22;26931;43.498;-1.506;2022-09-27T17:28:39;18.90;91.70
34644;DHT22;26931;43.498;-1.506;2022-09-27T17:31:07;19.00;91.90
34644;DHT22;26931;43.498;-1.506;2022-09-27T17:33:35;18.80;91.90
34644;DHT22;26931;43.498;-1.506;2022-09-27T17:36:06;18.80;92.10
34644;DHT22;26931;43.498;-1.506;2022-09-27T17:38:33;18.80;92.00
34644;DHT22;26931;43.498;-1.506;2022-09-27T17:41:01;18.90;92.00
34644;DHT22;26931;43.498;-1.506;2022-09-27T17:43:27;18.90;91.90